Latest Weather Observations for Pallamana

IDS60801

Issued at 7:21 pm CST Saturday 30 May 2020 (issued every 10 minutes, with the page automatically refreshed every 10 minutes)

About weather observations | Map of weather stations | Latest weather observations for SA | Other Formats
Station Details ID: 024584 Name: PALLAMANA AERODROME Lat: -35.06 Lon: 139.23 Height: 45.0 m
Data from the previous 72 hours. | See also: Recent months at Pallamana
Date/Time
CST
Temp
°C
App
Temp
°C
Dew
Point
°C
Rel
Hum
%
Delta-T
°C
Wind Press
QNH
hPa
Press
MSL
hPa
Rain since
9am
mm
Dir  Spd
km/h
Gust
km/h
Spd
kts
Gust
kts
30/07:00pm 15.8 10.8 4.8 48 5.2 N 20 30 11 16 1012.6 1012.5 0.0
30/06:30pm 15.1 9.1 5.2 51 4.7 N 26 39 14 21 1011.5 1011.4 0.0
30/06:00pm 15.1 9.1 5.2 51 4.7 N 26 41 14 22 1011.0 1011.0 0.0
30/05:30pm 14.9 8.1 5.2 52 4.6 NNE 30 35 16 19 1010.6 1010.6 0.0
30/05:00pm 15.3 8.6 5.7 52 4.6 N 30 43 16 23 1010.5 1010.5 0.0
30/04:30pm 16.5 8.2 4.4 44 5.7 N 37 48 20 26 1010.8 1010.8 0.0
30/04:06pm 16.7 7.2 3.8 42 6.0 N 43 61 23 33 1010.5 1010.5 0.0
30/04:00pm 16.5 7.0 4.1 43 5.8 N 43 56 23 30 1010.5 1010.5 0.0
30/03:30pm 17.8 8.5 2.8 36 6.9 N 41 57 22 31 1010.6 1010.6 0.0
30/03:17pm 18.4 7.8 0.5 30 7.9 N 46 65 25 35 1010.4 1010.4 0.0
30/03:00pm 18.8 7.4 0.5 29 8.1 NNW 50 65 27 35 1010.6 1010.6 0.0
30/02:32pm 19.0 9.3 0.5 29 8.2 NNW 41 65 22 35 1010.6 1010.6 0.0
30/02:30pm 18.9 9.6 0.7 29 8.1 NNW 39 56 21 30 1010.6 1010.6 0.0
30/02:16pm 19.4 9.7 0.2 27 8.5 NNW 41 59 22 32 1010.9 1010.9 0.0
30/02:00pm 19.9 9.5 -0.3 25 8.9 NNW 44 59 24 32 1010.8 1010.8 0.0
30/01:55pm 20.1 10.7 -0.3 25 9.0 NNW 39 59 21 32 1010.7 1010.7 0.0
30/01:30pm 21.5 11.2 -1.0 22 9.9 NNW 43 59 23 32 1011.1 1011.1 0.0
30/01:28pm 21.7 11.8 -1.0 22 10.0 NNW 41 59 22 32 1010.9 1010.9 0.0
30/01:00pm 20.0 10.5 2.0 30 8.3 N 41 50 22 27 1010.9 1010.9 0.0
30/12:30pm 18.8 8.9 1.9 32 7.7 N 43 56 23 30 1011.5 1011.4 0.0
30/12:00pm 18.3 7.8 1.7 33 7.5 N 46 57 25 31 1012.0 1011.9 0.0
30/11:30am 17.6 6.7 1.5 34 7.2 N 48 57 26 31 1013.0 1013.0 0.0
30/11:00am 16.8 5.9 1.5 35 6.8 N 48 59 26 32 1013.8 1013.8 0.0
30/10:33am 15.7 5.3 2.0 39 6.1 N 46 65 25 35 1014.3 1014.3 0.0
30/10:30am 15.6 5.2 1.8 39 6.1 N 46 57 25 31 1014.4 1014.4 0.0
30/10:00am 14.1 3.7 2.0 44 5.3 N 46 57 25 31 1015.6 1015.6 0.0
30/09:30am 13.4 3.9 1.9 45 5.0 N 41 57 22 31 1016.4 1016.4 0.0
30/09:00am 12.0 4.2 2.9 53 4.0 NNE 33 43 18 23 1017.1 1017.1 0.0
30/08:30am 10.2 3.3 2.7 59 3.2 NNE 28 33 15 18 1017.6 1017.6 0.0
30/08:00am 9.1 2.6 2.7 64 2.7 NNE 26 33 14 18 1017.7 1017.7 0.0
30/07:30am 8.5 1.6 2.8 67 2.4 NNE 28 37 15 20 1017.8 1017.8 0.0
30/07:00am 8.8 1.5 2.4 64 2.7 NNE 30 39 16 21 1018.1 1018.1 0.0
30/06:57am 8.7 2.2 2.5 65 2.6 NNE 26 39 14 21 1018.1 1018.1 0.0
30/06:30am 4.7 0.2 2.2 84 1.0 N 15 17 8 9 1018.5 1018.5 0.0
30/06:00am 4.8 0.3 2.3 84 1.0 N 15 15 8 8 1018.6 1018.6 0.0
30/05:30am 5.6 1.1 2.4 80 1.3 N 15 19 8 10 1018.5 1018.5 0.0
30/05:00am 5.7 1.6 2.5 80 1.3 N 13 15 7 8 1018.7 1018.7 0.0
30/04:30am 6.1 2.5 2.7 79 1.4 N 11 13 6 7 1018.9 1018.9 0.0
30/04:00am 5.1 1.4 2.4 83 1.1 N 11 13 6 7 1019.3 1019.3 0.0
30/03:30am 5.2 1.4 2.0 80 1.3 N 11 15 6 8 1019.5 1019.5 0.0
30/03:00am 5.7 1.2 2.2 78 1.4 N 15 20 8 11 1019.7 1019.7 0.0
30/02:30am 6.0 1.6 2.8 80 1.3 N 15 17 8 9 1019.7 1019.7 0.0
30/02:00am 4.5 1.1 2.0 84 1.0 N 9 9 5 5 1020.0 1020.0 0.0
30/01:30am 5.4 2.7 2.4 81 1.2 N 6 7 3 4 1020.2 1020.2 0.0
30/01:00am 6.1 4.2 2.7 79 1.4 NNE 2 6 1 3 1020.5 1020.5 0.0
30/12:30am 6.2 3.5 2.8 79 1.4 NNW 6 7 3 4 1020.8 1020.8 0.0
30/12:00am 6.8 3.9 2.7 75 1.7 NNW 7 7 4 4 1021.3 1021.3 0.0
 
Date/Time
CST
Temp
°C
App
Temp
°C
Dew
Point
°C
Rel
Hum
%
Delta-T
°C
Wind Press
QNH
hPa
Press
MSL
hPa
Rain since
9am
mm
Dir  Spd
km/h
Gust
km/h
Spd
kts
Gust
kts
29/11:30pm 6.8 3.9 2.7 75 1.7 NNW 7 9 4 5 1021.5 1021.5 0.0
29/11:00pm 6.2 3.4 3.1 80 1.3 NNE 7 9 4 5 1021.6 1021.6 0.0
29/10:30pm 5.6 2.4 2.9 83 1.1 NNW 9 11 5 6 1022.0 1022.0 0.0
29/10:00pm 7.3 3.4 3.5 77 1.6 NNW 13 15 7 8 1022.2 1022.2 0.0
29/09:30pm 8.2 4.7 3.3 71 2.1 NNW 11 13 6 7 1022.6 1022.6 0.0
29/09:00pm 8.8 5.3 3.7 70 2.2 NNW 11 13 6 7 1022.9 1022.9 0.0
29/08:30pm 8.8 5.7 3.7 70 2.2 N 9 9 5 5 1022.9 1022.9 0.0
29/08:00pm 12.5 7.9 3.5 54 4.0 WNW 17 20 9 11 1022.7 1022.7 0.0
29/07:30pm 11.1 7.3 3.9 61 3.2 NW 13 15 7 8 1022.8 1022.8 0.0
29/07:00pm 10.6 7.6 4.3 65 2.8 NNW 9 11 5 6 1022.9 1022.9 0.0
29/06:30pm 11.2 8.2 4.3 62 3.1 NNW 9 9 5 5 1022.8 1022.8 0.0
29/06:00pm 12.2 9.2 4.2 58 3.6 N 9 11 5 6 1022.8 1022.8 0.0
29/05:30pm 13.3 10.9 5.1 57 3.8 NNW 7 9 4 5 1022.7 1022.7 0.0
29/05:00pm 15.7 12.9 5.1 49 5.0 NNW 9 11 5 6 1022.8 1022.8 0.0
29/04:30pm 18.0 13.4 3.9 39 6.6 NNW 17 22 9 12 1022.7 1022.7 0.0
29/04:00pm 18.8 13.6 3.4 36 7.2 NNW 20 26 11 14 1022.7 1022.7 0.0
29/03:30pm 18.9 12.9 3.2 35 7.3 NNW 24 32 13 17 1022.9 1022.9 0.0
29/03:00pm 19.1 13.0 2.9 34 7.5 NNW 24 37 13 20 1023.1 1023.1 0.0
29/02:30pm 19.1 12.4 3.6 35 7.3 NNW 28 35 15 19 1023.1 1023.1 0.0
29/02:00pm 19.1 13.2 3.9 36 7.2 NNW 24 33 13 18 1023.5 1023.5 0.0
29/01:30pm 18.9 13.7 3.5 36 7.2 NW 20 32 11 17 1023.7 1023.7 0.0
29/01:00pm 18.5 13.2 3.2 36 7.1 NW 20 30 11 16 1024.0 1024.0 0.0
29/12:30pm 18.4 12.8 3.3 36 7.0 NW 22 32 12 17 1024.4 1024.4 0.0
29/12:00pm 18.4 12.1 3.6 37 6.9 NNW 26 32 14 17 1024.9 1024.9 0.0
29/11:30am 17.3 12.8 6.8 50 5.2 NNE 20 26 11 14 1025.4 1025.4 0.0
29/11:00am 16.2 11.7 6.8 53 4.6 NNE 20 26 11 14 1025.9 1025.9 0.0
29/10:30am 14.9 11.1 7.6 61 3.6 N 17 20 9 11 1026.3 1026.3 0.0
29/10:00am 13.7 11.1 7.6 66 3.0 NNE 11 13 6 7 1026.5 1026.5 0.0
29/09:30am 10.9 8.6 7.6 80 1.6 NNE 9 11 5 6 1026.4 1026.4 0.0
29/09:00am 8.7 6.3 6.8 88 0.9 N 9 11 5 6 1026.4 1026.4 0.0
29/08:30am 6.5 3.8 5.4 93 0.5 N 9 11 5 6 1026.3 1026.3 0.0
29/08:00am 5.1 2.2 4.4 95 0.3 NNW 9 9 5 5 1026.1 1026.1 0.0
29/07:30am 3.7 0.9 3.0 95 0.3 NNW 7 9 4 5 1026.2 1026.2 0.0
29/07:00am 4.2 1.5 3.5 95 0.3 NNW 7 7 4 4 1025.9 1025.9 0.0
29/06:30am 3.4 0.1 2.4 93 0.4 NNW 9 9 5 5 1025.8 1025.8 0.0
29/06:00am 4.2 1.1 3.5 95 0.3 NNW 9 11 5 6 1025.5 1025.5 0.0
29/05:30am 4.1 1.0 3.4 95 0.3 NNW 9 9 5 5 1025.3 1025.3 0.0
29/05:00am 3.2 0.5 2.4 94 0.3 N 6 7 3 4 1025.1 1025.1 0.0
29/04:30am 3.4 0.7 2.6 94 0.3 N 6 7 3 4 1025.1 1025.1 0.0
29/04:00am 4.7 2.2 3.7 93 0.4 N 6 7 3 4 1025.0 1025.0 0.0
29/03:30am 4.5 1.9 3.3 92 0.5 NNW 6 9 3 5 1025.1 1025.1 0.0
29/03:00am 4.0 2.2 3.3 95 0.3 N 2 6 1 3 1025.1 1025.1 0.0
29/02:30am 3.8 0.6 2.8 93 0.4 N 9 9 5 5 1025.1 1025.1 0.0
29/02:00am 3.2 0.4 2.2 93 0.4 NNW 6 7 3 4 1025.0 1025.0 0.0
29/01:30am 4.4 1.3 3.4 93 0.4 N 9 11 5 6 1024.9 1024.9 0.0
29/01:00am 4.4 1.2 3.2 92 0.5 NNW 9 11 5 6 1024.8 1024.8 0.0
29/12:30am 6.1 3.2 4.9 92 0.5 NNW 9 11 5 6 1025.2 1025.2 0.0
29/12:00am 5.8 2.9 4.4 91 0.6 NNW 9 11 5 6 1025.3 1025.3 0.0
 
Date/Time
CST
Temp
°C
App
Temp
°C
Dew
Point
°C
Rel
Hum
%
Delta-T
°C
Wind Press
QNH
hPa
Press
MSL
hPa
Rain since
9am
mm
Dir  Spd
km/h
Gust
km/h
Spd
kts
Gust
kts
28/11:30pm 5.7 3.1 4.3 91 0.6 N 7 7 4 4 1025.4 1025.4 0.0
28/11:00pm 6.3 3.8 4.9 91 0.6 NNW 7 9 4 5 1025.5 1025.5 0.0
28/10:30pm 6.5 4.2 4.9 89 0.7 NW 6 7 3 4 1025.4 1025.4 0.0
28/10:00pm 7.4 5.7 5.8 90 0.7 NE 4 7 2 4 1025.2 1025.2 0.0
28/09:30pm 6.3 4.7 4.7 89 0.7 WSW 2 6 1 3 1025.3 1025.3 0.0
28/09:00pm 7.6 4.8 5.3 85 1.0 NNW 9 11 5 6 1025.2 1025.2 0.0
28/08:30pm 9.3 6.0 6.3 81 1.4 NNW 13 15 7 8 1025.1 1025.1 0.0
28/08:00pm 10.1 7.2 6.4 78 1.7 WNW 11 13 6 7 1025.0 1025.0 0.0
28/07:30pm 9.6 6.5 5.6 76 1.8 WNW 11 13 6 7 1024.9 1024.9 0.0
28/07:00pm 11.8 8.0 6.0 67 2.7 W 15 17 8 9 1024.9 1024.9 0.0
28/06:30pm 12.2 8.5 6.3 67 2.8 W 15 17 8 9 1024.6 1024.6 0.0
28/06:00pm 12.3 9.5 6.9 69 2.6 W 11 13 6 7 1024.3 1024.3 0.0
28/05:30pm 13.4 10.7 7.2 66 3.0 W 11 13 6 7 1023.8 1023.8 0.0
28/05:00pm 14.5 11.7 6.9 60 3.7 WNW 11 15 6 8 1023.6 1023.6 0.0
28/04:30pm 15.5 12.5 5.9 52 4.6 WNW 11 15 6 8 1023.3 1023.3 0.0
28/04:00pm 16.3 12.1 5.9 50 5.0 WNW 17 24 9 13 1023.3 1023.3 0.0
28/03:30pm 17.3 13.1 5.7 46 5.6 NW 17 24 9 13 1022.9 1022.9 0.0
28/03:00pm 16.6 12.5 6.1 50 5.1 NW 17 26 9 14 1022.8 1022.8 0.0
28/02:30pm 17.5 12.9 6.3 47 5.5 NW 20 26 11 14 1022.6 1022.6 0.0
28/02:00pm 17.7 13.3 6.6 48 5.5 WNW 19 26 10 14 1022.5 1022.5 0.0
28/01:30pm 17.3 14.0 8.0 54 4.7 W 15 22 8 12 1022.5 1022.5 0.0
28/01:00pm 16.8 13.8 7.9 55 4.5 WNW 13 19 7 10 1023.0 1023.0 0.0
28/12:30pm 17.1 13.0 7.8 54 4.7 NW 19 26 10 14 1023.3 1023.3 0.0
28/12:00pm 16.3 12.4 8.7 60 3.9 WNW 19 28 10 15 1023.7 1023.7 0.0
28/11:30am 17.1 13.3 9.2 59 4.1 NW 19 26 10 14 1023.7 1023.7 0.0
28/11:00am 16.7 13.3 9.1 61 3.9 NW 17 22 9 12 1023.8 1023.8 0.0
28/10:30am 15.9 13.2 10.4 70 2.9 N 15 20 8 11 1024.0 1024.0 0.0
28/10:00am 14.9 12.6 10.3 74 2.4 N 13 24 7 13 1023.8 1023.8 0.0
28/09:30am 13.1 11.5 11.4 89 0.9 N 11 15 6 8 1023.8 1023.8 0.0
28/09:00am 10.3 8.4 9.1 92 0.6 NNW 9 11 5 6 1023.6 1023.6 0.0
28/08:30am 8.5 6.9 7.9 96 0.3 N 6 7 3 4 1023.5 1023.5 0.0
28/08:00am 6.4 5.0 5.7 95 0.3 NNW 2 7 1 4 1023.1 1023.1 0.0
28/07:30am 4.9 3.6 4.2 95 0.3 CALM 0 0 0 0 1022.7 1022.7 0.0
28/07:00am 5.2 4.0 4.5 95 0.3 CALM 0 0 0 0 1022.5 1022.5 0.0
28/06:30am 5.1 3.1 4.4 95 0.3 SE 4 7 2 4 1022.1 1022.1 0.0
28/06:00am 7.5 5.0 6.6 94 0.4 NW 9 11 5 6 1021.9 1021.9 0.0
28/05:30am 7.2 4.3 6.3 94 0.4 NNW 11 13 6 7 1021.6 1021.6 0.0
28/05:00am 5.7 2.9 5.0 95 0.3 N 9 11 5 6 1021.5 1021.5 0.0
28/04:30am 6.5 4.4 5.8 95 0.3 SE 6 7 3 4 1021.3 1021.3 0.0
28/04:00am 7.0 4.9 5.9 93 0.5 SE 6 7 3 4 1021.2 1021.2 0.0
28/03:30am 6.7 4.6 5.8 94 0.4 NNE 6 7 3 4 1021.2 1021.2 0.0
28/03:00am 7.0 4.8 6.1 94 0.4 NNW 7 19 4 10 1021.1 1021.1 0.0
28/02:30am 8.2 6.2 7.1 93 0.5 NW 7 11 4 6 1021.0 1021.0 0.0
28/02:00am 7.6 4.4 7.0 96 0.3 NNW 13 17 7 9 1021.2 1021.2 0.0
28/01:30am 7.3 6.5 6.6 95 0.3 CALM 0 6 0 3 1021.0 1021.0 0.0
28/01:00am 6.4 4.2 5.5 94 0.4 NW 6 7 3 4 1021.1 1021.1 0.0
28/12:30am 7.7 5.9 7.1 96 0.3 N 6 7 3 4 1021.1 1021.1 0.0
28/12:00am 7.1 6.3 6.4 95 0.3 CALM 0 0 0 0 1021.2 1021.2 0.0
 
Date/Time
CST
Temp
°C
App
Temp
°C
Dew
Point
°C
Rel
Hum
%
Delta-T
°C
Wind Press
QNH
hPa
Press
MSL
hPa
Rain since
9am
mm
Dir  Spd
km/h
Gust
km/h
Spd
kts
Gust
kts
27/11:30pm 8.0 6.2 7.1 94 0.4 NW 6 11 3 6 1021.1 1021.1 0.0
27/11:00pm 8.3 5.9 7.2 93 0.5 N 9 13 5 7 1021.0 1021.0 0.0
27/10:30pm 8.6 7.0 8.0 96 0.3 W 6 7 3 4 1020.7 1020.7 0.0
27/10:00pm 9.9 8.2 8.2 89 0.8 NW 7 9 4 5 1020.6 1020.6 0.0
27/09:30pm 10.5 9.1 8.7 89 0.9 NNW 6 9 3 5 1020.5 1020.5 0.0
27/09:00pm 12.4 11.1 10.1 86 1.2 NNW 7 9 4 5 1020.4 1020.4 0.0
27/08:30pm 12.8 12.9 10.3 85 1.3 CALM 0 0 0 0 1020.3 1020.3 0.0
27/08:00pm 13.4 13.5 10.1 80 1.7 CALM 0 0 0 0 1020.2 1020.2 0.0
27/07:30pm 14.2 13.0 10.2 77 2.1 WNW 7 11 4 6 1020.0 1020.0 0.0

Other formats

Comma delimited format used in spreadsheet applications
http://www.bom.gov.au/fwo/IDS60801/IDS60801.95818.axf

JavaScript Object Notation format (JSON) in row-major order
http://www.bom.gov.au/fwo/IDS60801/IDS60801.95818.json

Data quality

Most of these data are generated automatically and are frequently updated. Quality checks on data are not normally performed. It is possible for incorrect values to appear. Refer to information at About Latest Weather Observations and please check the disclaimer before using these data.